Time;durP1;ratioP1;P1;durP2;ratioP2;P2;SDS_P1;SDS_P2;PMS_P1;PMS_P2;Temp;Humidity;BMP_temperature;BMP_pressure;BME280_temperature;BME280_humidity;BME280_pressure;Samples;Min_cycle;Max_cycle;Signal;HPM_P1;HPM_P2
2022/03/31 00:00:53;;;;;;;9.35;4.80;;;;;;;;;;5047629;28;20029;-51
2022/03/31 00:03:20;;;;;;;9.80;4.25;;;;;;;;;;5042440;28;20035;-52
2022/03/31 00:05:47;;;;;;;7.43;4.35;;;;;;;;;;5038037;28;20679;-48
2022/03/31 00:08:14;;;;;;;8.48;5.05;;;;;;;;;;5046047;28;20108;-50
2022/03/31 00:10:48;;;;;;;10.80;5.22;;;;;;;;;;5040148;28;20127;-51
2022/03/31 00:13:14;;;;;;;;;;;;;;;;;;5037309;28;20030;-49
2022/03/31 00:15:40;;;;;;;9.38;4.72;;;;;;;;;;5040098;28;19978;-48
2022/03/31 00:18:07;;;;;;;11.95;5.07;;;;;;;;;;5038604;28;20104;-47
2022/03/31 00:20:33;;;;;;;10.35;5.25;;;;;;;;;;5046906;28;20476;-52
2022/03/31 00:22:59;;;;;;;10.70;4.47;;;;;;;;;;5047195;28;20034;-49
2022/03/31 00:25:26;;;;;;;10.18;4.95;;;;;;;;;;5039837;28;20026;-48
2022/03/31 00:27:52;;;;;;;11.80;4.68;;;;;;;;;;5046018;28;20040;-52
2022/03/31 00:30:18;;;;;;;14.18;5.47;;;;;;;;;;5040573;28;20043;-51
2022/03/31 00:32:44;;;;;;;10.73;5.53;;;;;;;;;;5045142;28;20040;-53
2022/03/31 00:35:12;;;;;;;12.00;5.35;;;;;;;;;;5039801;28;20029;-53
2022/03/31 00:37:39;;;;;;;10.57;4.68;;;;;;;;;;5041472;28;20037;-50
2022/03/31 00:40:06;;;;;;;8.88;4.53;;;;;;;;;;5032237;28;20025;-51
2022/03/31 00:42:31;;;;;;;8.73;4.55;;;;;;;;;;5038227;28;20627;-49
2022/03/31 00:44:57;;;;;;;10.07;5.38;;;;;;;;;;5049638;28;20032;-50
2022/03/31 00:47:23;;;;;;;8.93;5.28;;;;;;;;;;5049976;28;20036;-49
2022/03/31 00:49:49;;;;;;;11.95;5.25;;;;;;;;;;5047824;28;20021;-49
2022/03/31 00:52:15;;;;;;;8.98;4.85;;;;;;;;;;5039143;28;20025;-47
2022/03/31 00:54:43;;;;;;;12.15;5.72;;;;;;;;;;5041872;28;21828;-52
2022/03/31 00:57:10;;;;;;;11.65;5.13;;;;;;;;;;5048269;28;20052;-48
2022/03/31 00:59:39;;;;;;;8.75;5.47;;;;;;;;;;5036664;28;20026;-47
2022/03/31 01:02:05;;;;;;;17.52;5.45;;;;;;;;;;5039208;28;20649;-52
2022/03/31 01:04:34;;;;;;;8.23;4.97;;;;;;;;;;5040101;28;20033;-53
2022/03/31 01:07:00;;;;;;;7.25;4.72;;;;;;;;;;5037035;28;20388;-50
2022/03/31 01:09:26;;;;;;;10.57;5.45;;;;;;;;;;5044758;28;20033;-47
2022/03/31 01:11:52;;;;;;;15.27;5.57;;;;;;;;;;5043953;28;20041;-48
2022/03/31 01:14:20;;;;;;;10.20;5.05;;;;;;;;;;5042674;28;20061;-49
2022/03/31 01:16:45;;;;;;;8.27;5.28;;;;;;;;;;5037794;28;20578;-51
2022/03/31 01:19:12;;;;;;;10.90;5.43;;;;;;;;;;5035212;28;20047;-48
2022/03/31 01:21:43;;;;;;;9.90;4.65;;;;;;;;;;5035353;28;20033;-49
2022/03/31 01:24:11;;;;;;;12.93;5.05;;;;;;;;;;5037535;28;20029;-48
2022/03/31 01:26:38;;;;;;;7.45;4.75;;;;;;;;;;5033796;28;20474;-51
2022/03/31 01:29:04;;;;;;;9.13;4.60;;;;;;;;;;5032874;28;20101;-47
2022/03/31 01:31:30;;;;;;;9.85;5.30;;;;;;;;;;5035710;28;20453;-48
2022/03/31 01:33:57;;;;;;;8.77;4.82;;;;;;;;;;5042775;28;20095;-47
2022/03/31 01:36:23;;;;;;;6.35;4.63;;;;;;;;;;5038184;28;20056;-48
2022/03/31 01:38:49;;;;;;;10.63;4.85;;;;;;;;;;5045831;28;20056;-48
2022/03/31 01:41:15;;;;;;;9.25;5.07;;;;;;;;;;5042113;28;20492;-48
2022/03/31 01:43:41;;;;;;;9.65;4.72;;;;;;;;;;5038213;28;20036;-47
2022/03/31 01:46:08;;;;;;;7.82;5.05;;;;;;;;;;5049958;28;20029;-51
2022/03/31 01:48:34;;;;;;;9.77;4.75;;;;;;;;;;5054357;28;20036;-49
2022/03/31 01:51:00;;;;;;;10.02;4.47;;;;;;;;;;5048024;28;20082;-50
2022/03/31 01:53:26;;;;;;;10.02;4.80;;;;;;;;;;5037288;28;20025;-51
2022/03/31 01:55:53;;;;;;;14.55;4.72;;;;;;;;;;5043647;28;20052;-48
2022/03/31 01:58:19;;;;;;;14.25;5.28;;;;;;;;;;5049798;28;20025;-50
2022/03/31 02:00:45;;;;;;;8.75;5.15;;;;;;;;;;5048016;28;20512;-49
2022/03/31 02:03:10;;;;;;;7.15;4.43;;;;;;;;;;5043155;28;20051;-50
2022/03/31 02:05:36;;;;;;;8.73;4.68;;;;;;;;;;5049584;28;20040;-49
2022/03/31 02:08:03;;;;;;;11.27;5.22;;;;;;;;;;5046307;28;20036;-48
2022/03/31 02:10:29;;;;;;;11.32;5.10;;;;;;;;;;5048346;28;20678;-47
2022/03/31 02:12:55;;;;;;;8.55;4.90;;;;;;;;;;5042128;28;20073;-48
2022/03/31 02:15:22;;;;;;;7.50;4.28;;;;;;;;;;5049443;28;20540;-47
2022/03/31 02:17:48;;;;;;;8.00;4.57;;;;;;;;;;5044390;28;20067;-47
2022/03/31 02:20:14;;;;;;;8.90;4.72;;;;;;;;;;5051104;28;20039;-49
2022/03/31 02:22:40;;;;;;;9.60;4.20;;;;;;;;;;5049414;28;20033;-47
2022/03/31 02:25:08;;;;;;;11.30;5.00;;;;;;;;;;5047108;28;20025;-49
2022/03/31 02:27:34;;;;;;;9.85;4.40;;;;;;;;;;5047786;28;20037;-51
2022/03/31 02:30:00;;;;;;;11.75;4.80;;;;;;;;;;5041173;28;20035;-51
2022/03/31 02:32:26;;;;;;;10.77;4.60;;;;;;;;;;5038060;28;20338;-49
2022/03/31 02:34:53;;;;;;;8.27;4.30;;;;;;;;;;5043300;28;20025;-50
2022/03/31 02:37:19;;;;;;;8.45;4.20;;;;;;;;;;5049549;28;20053;-47
2022/03/31 02:39:45;;;;;;;8.27;4.72;;;;;;;;;;5040059;28;20020;-52
2022/03/31 02:42:11;;;;;;;7.57;3.95;;;;;;;;;;5039539;28;20033;-52
2022/03/31 02:44:37;;;;;;;7.50;4.00;;;;;;;;;;5050740;28;20051;-49
2022/03/31 02:47:03;;;;;;;9.98;4.40;;;;;;;;;;5052056;28;20477;-47
2022/03/31 02:49:29;;;;;;;8.13;3.97;;;;;;;;;;5051309;28;20044;-47
2022/03/31 02:51:55;;;;;;;6.28;3.67;;;;;;;;;;5046578;28;20029;-47
2022/03/31 02:57:06;;;;;;;7.72;3.83;;;;;;;;;;5039184;28;20098;-50
2022/03/31 02:59:33;;;;;;;7.18;3.17;;;;;;;;;;5046890;28;20493;-48
2022/03/31 03:01:59;;;;;;;6.82;3.70;;;;;;;;;;5051506;28;20020;-47
2022/03/31 03:04:25;;;;;;;6.32;3.40;;;;;;;;;;5047034;28;20037;-52
2022/03/31 03:06:51;;;;;;;12.77;3.25;;;;;;;;;;5048048;28;20033;-51
2022/03/31 03:09:17;;;;;;;11.65;3.90;;;;;;;;;;5047409;28;20492;-51
2022/03/31 03:11:43;;;;;;;6.18;3.45;;;;;;;;;;5035270;28;20021;-47
2022/03/31 03:14:12;;;;;;;7.10;3.55;;;;;;;;;;5038681;28;20099;-50
2022/03/31 03:16:39;;;;;;;7.03;3.55;;;;;;;;;;5043820;28;20462;-52
2022/03/31 03:19:05;;;;;;;6.18;3.45;;;;;;;;;;5052129;28;20033;-47
2022/03/31 03:21:31;;;;;;;5.05;3.05;;;;;;;;;;5043074;28;20609;-47
2022/03/31 03:23:57;;;;;;;9.85;3.42;;;;;;;;;;5045189;28;20052;-48
2022/03/31 03:26:23;;;;;;;7.22;3.47;;;;;;;;;;5046980;28;20033;-48
2022/03/31 03:28:49;;;;;;;8.05;4.07;;;;;;;;;;5045118;28;20116;-48
2022/03/31 03:31:15;;;;;;;8.82;4.32;;;;;;;;;;5041855;28;20029;-47
2022/03/31 03:33:41;;;;;;;9.13;3.40;;;;;;;;;;5044696;28;20036;-47
2022/03/31 03:36:10;;;;;;;9.57;3.47;;;;;;;;;;5046673;28;20032;-47
2022/03/31 03:38:36;;;;;;;6.68;3.33;;;;;;;;;;5036459;28;20152;-47
2022/03/31 03:41:02;;;;;;;5.93;3.60;;;;;;;;;;5041652;28;20107;-48
2022/03/31 03:43:30;;;;;;;6.07;3.15;;;;;;;;;;5036562;28;20570;-50
2022/03/31 03:45:56;;;;;;;6.38;3.75;;;;;;;;;;5044508;28;20056;-51
2022/03/31 03:48:22;;;;;;;8.57;3.92;;;;;;;;;;5047232;28;20048;-49
2022/03/31 03:50:48;;;;;;;9.95;3.63;;;;;;;;;;5040366;28;20033;-48
2022/03/31 03:53:14;;;;;;;6.25;3.60;;;;;;;;;;5060960;28;20028;-53
2022/03/31 03:55:40;;;;;;;10.65;4.20;;;;;;;;;;5040715;28;20055;-49
2022/03/31 03:58:07;;;;;;;9.45;3.88;;;;;;;;;;5040865;28;20082;-49
2022/03/31 04:00:33;;;;;;;7.88;3.55;;;;;;;;;;5044537;28;20040;-52
2022/03/31 04:02:59;;;;;;;8.05;3.75;;;;;;;;;;5032176;28;20095;-48
2022/03/31 04:05:25;;;;;;;9.50;3.80;;;;;;;;;;5047723;28;20033;-47
2022/03/31 04:07:51;;;;;;;8.07;3.47;;;;;;;;;;5039342;28;20037;-48
2022/03/31 04:10:17;;;;;;;6.63;3.70;;;;;;;;;;5048212;28;20029;-47
2022/03/31 04:12:43;;;;;;;9.13;3.72;;;;;;;;;;5047170;28;20036;-47
2022/03/31 04:15:10;;;;;;;6.72;4.05;;;;;;;;;;5048050;28;20044;-49
2022/03/31 04:17:36;;;;;;;8.90;3.38;;;;;;;;;;5045289;28;20070;-47
2022/03/31 04:20:03;;;;;;;8.43;4.13;;;;;;;;;;5043966;28;20039;-50
2022/03/31 04:22:33;;;;;;;10.82;4.07;;;;;;;;;;5046944;28;20107;-50
2022/03/31 04:24:59;;;;;;;6.28;3.78;;;;;;;;;;5033044;28;20440;-47
2022/03/31 04:27:25;;;;;;;9.73;3.65;;;;;;;;;;5039204;28;20034;-48
2022/03/31 04:29:51;;;;;;;9.07;4.30;;;;;;;;;;5033947;28;20044;-47
2022/03/31 04:32:17;;;;;;;16.80;7.05;;;;;;;;;;5035415;28;20666;-47
2022/03/31 04:34:43;;;;;;;17.10;7.88;;;;;;;;;;5036600;28;20145;-46
2022/03/31 04:37:09;;;;;;;9.35;6.13;;;;;;;;;;5035818;28;20033;-48
2022/03/31 04:39:35;;;;;;;7.43;3.80;;;;;;;;;;5037162;28;20576;-50
2022/03/31 04:42:02;;;;;;;7.32;3.63;;;;;;;;;;5037947;28;20029;-47
2022/03/31 04:44:28;;;;;;;14.85;8.13;;;;;;;;;;5047987;28;20161;-49
2022/03/31 04:46:54;;;;;;;6.50;3.42;;;;;;;;;;5042982;28;20114;-49
2022/03/31 04:49:20;;;;;;;6.35;3.15;;;;;;;;;;5043375;28;21759;-47
2022/03/31 04:51:46;;;;;;;8.25;4.22;;;;;;;;;;5039314;28;20024;-49
2022/03/31 04:54:12;;;;;;;7.90;3.95;;;;;;;;;;5036391;28;20033;-48
2022/03/31 04:56:39;;;;;;;8.80;3.83;;;;;;;;;;5038723;28;20049;-50
2022/03/31 04:59:05;;;;;;;6.47;3.40;;;;;;;;;;5033692;28;20535;-52
2022/03/31 05:01:31;;;;;;;5.18;3.10;;;;;;;;;;5043296;28;20057;-48
2022/03/31 05:03:57;;;;;;;5.20;2.78;;;;;;;;;;5043302;28;20041;-48
2022/03/31 05:06:23;;;;;;;5.65;2.97;;;;;;;;;;5038335;28;20035;-48
2022/03/31 05:08:49;;;;;;;6.97;3.55;;;;;;;;;;5044845;28;20055;-48
2022/03/31 05:11:15;;;;;;;5.60;3.17;;;;;;;;;;5049030;28;20025;-47
2022/03/31 05:13:41;;;;;;;5.85;3.13;;;;;;;;;;5038254;28;20036;-47
2022/03/31 05:16:07;;;;;;;5.85;3.20;;;;;;;;;;5045069;28;20072;-48
2022/03/31 05:18:33;;;;;;;5.78;3.63;;;;;;;;;;5047334;28;20013;-48
2022/03/31 05:20:59;;;;;;;5.38;3.20;;;;;;;;;;5036685;28;20033;-47
2022/03/31 05:23:25;;;;;;;5.90;3.10;;;;;;;;;;5042371;28;20013;-49
2022/03/31 05:25:51;;;;;;;6.32;3.38;;;;;;;;;;5042527;28;20413;-52
2022/03/31 05:28:18;;;;;;;4.88;3.08;;;;;;;;;;5048184;28;20029;-51
2022/03/31 05:30:43;;;;;;;8.93;3.38;;;;;;;;;;5038931;28;20056;-50
2022/03/31 05:33:10;;;;;;;5.40;2.78;;;;;;;;;;5041502;28;20025;-48
2022/03/31 05:35:36;;;;;;;9.00;2.95;;;;;;;;;;5037524;28;20029;-50
2022/03/31 05:38:03;;;;;;;5.13;2.83;;;;;;;;;;5040149;28;20424;-49
2022/03/31 05:40:29;;;;;;;5.30;3.00;;;;;;;;;;5046137;28;20021;-49
2022/03/31 05:42:55;;;;;;;8.05;3.08;;;;;;;;;;5043125;28;20020;-47
2022/03/31 05:45:21;;;;;;;4.70;2.70;;;;;;;;;;5042922;28;20047;-49
2022/03/31 05:47:47;;;;;;;5.78;2.95;;;;;;;;;;5050045;28;20112;-47
2022/03/31 05:50:14;;;;;;;5.95;3.42;;;;;;;;;;5044614;28;20091;-48
2022/03/31 05:52:42;;;;;;;5.47;2.80;;;;;;;;;;5046122;28;20087;-48
2022/03/31 05:55:09;;;;;;;4.90;2.97;;;;;;;;;;5047451;28;20055;-47
2022/03/31 05:57:35;;;;;;;8.88;3.15;;;;;;;;;;5041696;28;20108;-47
2022/03/31 06:00:02;;;;;;;4.63;2.60;;;;;;;;;;5045821;28;20045;-51
2022/03/31 06:02:28;;;;;;;4.57;3.00;;;;;;;;;;5040555;28;20025;-47
2022/03/31 06:04:54;;;;;;;6.15;2.92;;;;;;;;;;5038350;28;20104;-51
2022/03/31 06:07:20;;;;;;;6.45;3.00;;;;;;;;;;5039742;28;20496;-48
2022/03/31 06:09:46;;;;;;;4.47;2.78;;;;;;;;;;5037539;28;20028;-47
2022/03/31 06:12:11;;;;;;;5.07;2.85;;;;;;;;;;5038809;28;20810;-49
2022/03/31 06:14:37;;;;;;;4.05;2.80;;;;;;;;;;5044555;28;20033;-47
2022/03/31 06:17:04;;;;;;;6.07;3.25;;;;;;;;;;5047261;28;20036;-48
2022/03/31 06:19:30;;;;;;;4.38;2.90;;;;;;;;;;5045227;28;20036;-49
2022/03/31 06:21:56;;;;;;;5.18;2.58;;;;;;;;;;5039994;28;20041;-47
2022/03/31 06:24:23;;;;;;;6.20;2.95;;;;;;;;;;5034462;28;20104;-47
2022/03/31 06:26:49;;;;;;;8.25;2.95;;;;;;;;;;5048139;28;20024;-47
2022/03/31 06:29:15;;;;;;;4.10;2.40;;;;;;;;;;5038308;28;20727;-47
2022/03/31 06:31:41;;;;;;;7.15;3.10;;;;;;;;;;5037917;28;20025;-47
2022/03/31 06:34:07;;;;;;;6.40;3.13;;;;;;;;;;5042617;28;20025;-51
2022/03/31 06:36:33;;;;;;;10.20;2.97;;;;;;;;;;5039077;28;20116;-49
2022/03/31 06:38:59;;;;;;;6.35;3.00;;;;;;;;;;5038055;28;20033;-48
2022/03/31 06:41:25;;;;;;;6.78;3.22;;;;;;;;;;5040649;28;20021;-49
2022/03/31 06:43:52;;;;;;;8.73;3.20;;;;;;;;;;5038002;28;20120;-50
2022/03/31 06:46:18;;;;;;;6.93;3.03;;;;;;;;;;5052139;28;20024;-49
2022/03/31 06:48:48;;;;;;;7.80;2.97;;;;;;;;;;5041183;28;20026;-48
2022/03/31 06:51:15;;;;;;;5.88;2.60;;;;;;;;;;5040204;28;20087;-49
2022/03/31 06:53:41;;;;;;;6.85;3.00;;;;;;;;;;5047961;28;20797;-47
2022/03/31 06:56:08;;;;;;;6.30;3.00;;;;;;;;;;5035433;28;20049;-50
2022/03/31 06:58:34;;;;;;;8.73;2.50;;;;;;;;;;5040565;28;20534;-47
2022/03/31 07:01:01;;;;;;;8.88;3.58;;;;;;;;;;5045647;28;20079;-47
2022/03/31 07:03:27;;;;;;;9.65;3.13;;;;;;;;;;5039485;28;20031;-48
2022/03/31 07:05:54;;;;;;;6.53;3.08;;;;;;;;;;5036867;28;20033;-47
2022/03/31 07:08:20;;;;;;;9.32;3.75;;;;;;;;;;5036099;28;20108;-47
2022/03/31 07:10:46;;;;;;;5.68;3.03;;;;;;;;;;5050421;28;20037;-52
2022/03/31 07:13:12;;;;;;;7.70;3.05;;;;;;;;;;5045496;28;20072;-51
2022/03/31 07:15:38;;;;;;;6.15;2.88;;;;;;;;;;5052534;28;20027;-48
2022/03/31 07:18:05;;;;;;;5.65;2.85;;;;;;;;;;5044062;28;20067;-48
2022/03/31 07:20:31;;;;;;;7.25;3.22;;;;;;;;;;5042928;28;20037;-48
2022/03/31 07:22:57;;;;;;;6.30;3.47;;;;;;;;;;5041048;28;20043;-51
2022/03/31 07:25:23;;;;;;;8.60;3.22;;;;;;;;;;5041430;28;20032;-49
2022/03/31 07:27:50;;;;;;;7.38;3.75;;;;;;;;;;5048270;28;20422;-47
2022/03/31 07:30:17;;;;;;;7.10;3.50;;;;;;;;;;5041409;28;20037;-52
2022/03/31 07:32:49;;;;;;;4.72;3.05;;;;;;;;;;5035599;28;20048;-49
2022/03/31 07:35:15;;;;;;;7.10;3.33;;;;;;;;;;5049838;28;20021;-50
2022/03/31 07:37:42;;;;;;;8.27;3.60;;;;;;;;;;5040350;28;20470;-47
2022/03/31 07:40:08;;;;;;;6.47;3.67;;;;;;;;;;5043445;28;20495;-47
2022/03/31 07:42:34;;;;;;;7.05;3.47;;;;;;;;;;5036012;28;20033;-48
2022/03/31 07:45:00;;;;;;;5.07;2.88;;;;;;;;;;5039348;28;20021;-48
2022/03/31 07:47:26;;;;;;;5.60;3.15;;;;;;;;;;5034149;28;20049;-51
2022/03/31 07:49:53;;;;;;;5.55;3.15;;;;;;;;;;5037962;28;20068;-52
2022/03/31 07:52:21;;;;;;;5.63;3.40;;;;;;;;;;5043623;28;20029;-51
2022/03/31 07:54:47;;;;;;;5.25;3.10;;;;;;;;;;5049175;28;20053;-49
2022/03/31 07:57:13;;;;;;;8.00;2.83;;;;;;;;;;5049739;28;20025;-53
2022/03/31 07:59:39;;;;;;;6.15;3.25;;;;;;;;;;5043767;28;20092;-49
2022/03/31 08:02:06;;;;;;;9.35;3.83;;;;;;;;;;5046760;28;20388;-50
2022/03/31 08:04:33;;;;;;;10.50;4.18;;;;;;;;;;5045878;28;20037;-49
2022/03/31 08:06:59;;;;;;;8.48;3.80;;;;;;;;;;5051821;28;20037;-51
2022/03/31 08:09:25;;;;;;;8.77;3.55;;;;;;;;;;5048239;28;20048;-48
2022/03/31 08:11:51;;;;;;;6.78;3.72;;;;;;;;;;5034845;28;20033;-49
2022/03/31 08:14:19;;;;;;;8.88;3.28;;;;;;;;;;5052486;28;20051;-48
2022/03/31 08:16:46;;;;;;;7.47;3.50;;;;;;;;;;5047587;28;20075;-51
2022/03/31 08:19:12;;;;;;;5.22;3.00;;;;;;;;;;5044077;28;20036;-52
2022/03/31 08:21:38;;;;;;;7.75;3.17;;;;;;;;;;5047826;28;20508;-49
2022/03/31 08:24:04;;;;;;;5.93;3.03;;;;;;;;;;5042038;28;20037;-51
2022/03/31 08:26:30;;;;;;;6.18;3.40;;;;;;;;;;5047720;28;20363;-53
2022/03/31 08:28:56;;;;;;;5.07;2.97;;;;;;;;;;5051559;28;20032;-49
2022/03/31 08:31:22;;;;;;;7.18;3.33;;;;;;;;;;5043238;28;20411;-51
2022/03/31 08:33:48;;;;;;;7.47;3.22;;;;;;;;;;5049625;28;20029;-49
2022/03/31 08:36:14;;;;;;;7.10;3.17;;;;;;;;;;5038422;28;20397;-48
2022/03/31 08:38:40;;;;;;;5.43;3.05;;;;;;;;;;5046179;28;20057;-48
2022/03/31 08:41:06;;;;;;;7.53;3.13;;;;;;;;;;5044692;28;20041;-49
2022/03/31 08:43:33;;;;;;;6.28;3.15;;;;;;;;;;5041633;28;20492;-49
2022/03/31 08:45:59;;;;;;;6.55;3.10;;;;;;;;;;5051217;28;20036;-49
2022/03/31 08:48:26;;;;;;;4.18;2.97;;;;;;;;;;5044943;28;20037;-53
2022/03/31 08:50:52;;;;;;;6.13;3.00;;;;;;;;;;5034109;28;20082;-50
2022/03/31 08:53:18;;;;;;;4.80;3.05;;;;;;;;;;5041242;28;20024;-48
2022/03/31 08:55:44;;;;;;;5.88;2.97;;;;;;;;;;5047994;28;20044;-53
2022/03/31 08:58:10;;;;;;;6.53;3.08;;;;;;;;;;5038793;28;20128;-52
2022/03/31 09:00:36;;;;;;;5.47;3.30;;;;;;;;;;5036806;28;20427;-50
2022/03/31 09:03:03;;;;;;;6.78;3.13;;;;;;;;;;5032485;28;20033;-49
2022/03/31 09:05:36;;;;;;;5.38;2.88;;;;;;;;;;5051304;28;20081;-50
2022/03/31 09:08:05;;;;;;;4.85;2.97;;;;;;;;;;5033077;28;20036;-52
2022/03/31 09:10:35;;;;;;;5.57;2.97;;;;;;;;;;5045925;28;20045;-48
2022/03/31 09:13:03;;;;;;;6.78;3.33;;;;;;;;;;5047926;28;20037;-48
2022/03/31 09:15:30;;;;;;;6.53;3.63;;;;;;;;;;5044732;28;20033;-53
2022/03/31 09:17:57;;;;;;;6.38;2.72;;;;;;;;;;5035630;28;20107;-48
2022/03/31 09:20:23;;;;;;;6.25;2.90;;;;;;;;;;5049825;28;20048;-53
2022/03/31 09:22:50;;;;;;;4.75;2.92;;;;;;;;;;5047340;28;20061;-48
2022/03/31 09:25:23;;;;;;;7.03;3.03;;;;;;;;;;5039986;28;20025;-49
2022/03/31 09:27:49;;;;;;;5.13;2.92;;;;;;;;;;5036159;28;20026;-48
2022/03/31 09:30:15;;;;;;;7.18;2.85;;;;;;;;;;5040186;28;20044;-50
2022/03/31 09:32:48;;;;;;;5.65;3.17;;;;;;;;;;5043277;28;20032;-49
2022/03/31 09:35:18;;;;;;;5.63;3.10;;;;;;;;;;5032928;28;20021;-51
2022/03/31 09:37:45;;;;;;;5.60;2.85;;;;;;;;;;5036503;28;20037;-52
2022/03/31 09:40:11;;;;;;;5.55;2.60;;;;;;;;;;5051776;28;20381;-51
2022/03/31 09:42:37;;;;;;;5.35;3.00;;;;;;;;;;5033433;28;20374;-54
2022/03/31 09:45:03;;;;;;;6.40;3.17;;;;;;;;;;5039396;28;20041;-48
2022/03/31 09:47:30;;;;;;;5.30;2.95;;;;;;;;;;5038282;28;20028;-49
2022/03/31 09:49:57;;;;;;;7.65;3.38;;;;;;;;;;5048989;28;20033;-48
2022/03/31 09:52:23;;;;;;;6.68;3.28;;;;;;;;;;5045899;28;20402;-48
2022/03/31 09:54:50;;;;;;;7.93;3.13;;;;;;;;;;5043554;28;20063;-52
2022/03/31 09:57:20;;;;;;;7.78;3.40;;;;;;;;;;5054435;28;20036;-49
2022/03/31 09:59:49;;;;;;;6.75;3.08;;;;;;;;;;5035145;28;20014;-48
2022/03/31 10:02:15;;;;;;;5.30;2.90;;;;;;;;;;5050866;28;20420;-49
2022/03/31 10:04:46;;;;;;;6.07;2.83;;;;;;;;;;5045632;28;20036;-50
2022/03/31 10:07:12;;;;;;;5.53;3.10;;;;;;;;;;5042872;28;20040;-49
2022/03/31 10:09:39;;;;;;;7.78;3.05;;;;;;;;;;5044205;28;20032;-49
2022/03/31 10:12:17;;;;;;;5.43;2.60;;;;;;;;;;5045265;28;20037;-48
2022/03/31 10:15:04;;;;;;;5.25;3.03;;;;;;;;;;5053654;28;20040;-50
2022/03/31 10:17:31;;;;;;;4.60;2.38;;;;;;;;;;5039515;28;20033;-49
2022/03/31 10:20:10;;;;;;;8.05;3.20;;;;;;;;;;5036012;28;20101;-48
2022/03/31 10:25:20;;;;;;;8.10;3.22;;;;;;;;;;5040316;28;20409;-50
2022/03/31 10:27:49;;;;;;;7.18;3.53;;;;;;;;;;5047592;28;20440;-53
2022/03/31 10:30:17;;;;;;;6.07;2.80;;;;;;;;;;5051769;28;20043;-49
2022/03/31 10:32:53;;;;;;;6.72;3.90;;;;;;;;;;5037999;28;20041;-50
2022/03/31 10:35:23;;;;;;;7.60;2.60;;;;;;;;;;5034858;28;20113;-49
2022/03/31 10:37:49;;;;;;;4.68;2.78;;;;;;;;;;5045048;28;20691;-51
2022/03/31 10:40:27;;;;;;;5.05;2.80;;;;;;;;;;5050088;28;20051;-50
2022/03/31 10:42:56;;;;;;;10.10;3.50;;;;;;;;;;5043239;28;20021;-49
2022/03/31 10:45:22;;;;;;;5.45;3.25;;;;;;;;;;5052071;28;20025;-51
2022/03/31 10:47:50;;;;;;;5.07;2.83;;;;;;;;;;5051071;28;20040;-50
2022/03/31 10:50:23;;;;;;;4.03;2.80;;;;;;;;;;5041650;28;20064;-52
2022/03/31 10:52:59;;;;;;;8.55;3.15;;;;;;;;;;5047177;28;20029;-52
2022/03/31 10:55:34;;;;;;;5.93;2.97;;;;;;;;;;5052968;28;20072;-51
2022/03/31 10:58:00;;;;;;;5.30;3.08;;;;;;;;;;5046008;28;20026;-53
2022/03/31 11:00:26;;;;;;;4.88;2.85;;;;;;;;;;5051226;28;20029;-49
2022/03/31 11:02:54;;;;;;;4.10;2.47;;;;;;;;;;5044800;28;20029;-52
2022/03/31 11:05:25;;;;;;;3.90;2.45;;;;;;;;;;5042700;28;20021;-49
2022/03/31 11:08:01;;;;;;;5.53;2.85;;;;;;;;;;5044640;28;20035;-51
2022/03/31 11:10:26;;;;;;;5.85;2.60;;;;;;;;;;5050837;28;20029;-49
2022/03/31 11:12:53;;;;;;;4.45;2.65;;;;;;;;;;5041560;28;20041;-48
2022/03/31 11:15:19;;;;;;;6.45;2.97;;;;;;;;;;5043563;28;20738;-48
2022/03/31 11:17:45;;;;;;;3.85;2.70;;;;;;;;;;5036829;28;20021;-50
2022/03/31 11:20:14;;;;;;;4.80;2.55;;;;;;;;;;5039847;28;20036;-48
2022/03/31 11:22:47;;;;;;;5.15;2.90;;;;;;;;;;5039526;28;20092;-50
2022/03/31 11:25:13;;;;;;;6.10;2.40;;;;;;;;;;5043422;28;20036;-49
2022/03/31 11:27:40;;;;;;;13.43;3.67;;;;;;;;;;5052594;28;20036;-52
2022/03/31 11:30:07;;;;;;;7.22;3.38;;;;;;;;;;5051701;28;20552;-53
2022/03/31 11:32:34;;;;;;;10.07;2.80;;;;;;;;;;5047506;28;20036;-50
2022/03/31 11:35:01;;;;;;;8.45;3.03;;;;;;;;;;5043242;28;20078;-50
2022/03/31 11:37:27;;;;;;;5.38;3.22;;;;;;;;;;5047024;28;20028;-48
2022/03/31 11:39:53;;;;;;;12.00;3.25;;;;;;;;;;5052959;28;20115;-49
2022/03/31 11:42:19;;;;;;;8.63;3.22;;;;;;;;;;5045561;28;20076;-49
2022/03/31 11:44:45;;;;;;;3.80;2.47;;;;;;;;;;5035494;28;20021;-48
2022/03/31 11:47:17;;;;;;;5.90;3.13;;;;;;;;;;5045939;28;20111;-49
2022/03/31 11:49:45;;;;;;;4.57;2.50;;;;;;;;;;5033226;28;20021;-51
2022/03/31 11:52:11;;;;;;;9.45;2.83;;;;;;;;;;5041805;28;20036;-52
2022/03/31 11:54:41;;;;;;;4.93;2.72;;;;;;;;;;5049196;28;20477;-49
2022/03/31 11:57:12;;;;;;;4.82;2.80;;;;;;;;;;5041811;28;20781;-52
2022/03/31 11:59:38;;;;;;;4.38;3.10;;;;;;;;;;5043656;28;20018;-48
2022/03/31 12:02:14;;;;;;;9.82;3.13;;;;;;;;;;5046547;28;20021;-49
2022/03/31 12:04:43;;;;;;;4.78;2.78;;;;;;;;;;5041832;28;20045;-51
2022/03/31 12:07:10;;;;;;;5.20;2.53;;;;;;;;;;5042308;28;20124;-51
2022/03/31 12:09:38;;;;;;;5.47;2.65;;;;;;;;;;5045056;28;20033;-51
2022/03/31 12:12:06;;;;;;;4.75;3.03;;;;;;;;;;5042741;28;20043;-50
2022/03/31 12:14:34;;;;;;;6.03;2.65;;;;;;;;;;5043385;28;20039;-51
2022/03/31 12:17:00;;;;;;;6.68;3.15;;;;;;;;;;5046417;28;20036;-52
2022/03/31 12:19:36;;;;;;;10.18;3.20;;;;;;;;;;5040966;28;20114;-53
2022/03/31 12:22:02;;;;;;;7.10;2.78;;;;;;;;;;5032282;28;20033;-51
2022/03/31 12:24:28;;;;;;;8.18;3.15;;;;;;;;;;5043133;28;20108;-48
2022/03/31 12:26:55;;;;;;;7.85;3.67;;;;;;;;;;5043047;28;20389;-51
2022/03/31 12:29:22;;;;;;;6.68;3.15;;;;;;;;;;5044701;28;20439;-51
2022/03/31 12:31:48;;;;;;;5.20;3.17;;;;;;;;;;5033048;28;20021;-50
2022/03/31 12:34:14;;;;;;;7.43;3.33;;;;;;;;;;5034722;28;20025;-49
2022/03/31 12:36:41;;;;;;;5.50;3.00;;;;;;;;;;5049702;28;20087;-52
2022/03/31 12:39:08;;;;;;;6.93;3.60;;;;;;;;;;5046924;28;20024;-49
2022/03/31 12:41:39;;;;;;;6.22;3.22;;;;;;;;;;5042982;28;20108;-48
2022/03/31 12:44:09;;;;;;;6.20;3.53;;;;;;;;;;5051917;28;20503;-49
2022/03/31 12:46:37;;;;;;;4.93;3.28;;;;;;;;;;5051953;28;20094;-51
2022/03/31 12:49:06;;;;;;;6.63;3.47;;;;;;;;;;5039779;28;20029;-52
2022/03/31 12:51:52;;;;;;;7.47;3.38;;;;;;;;;;5044404;28;20032;-52
2022/03/31 12:54:26;;;;;;;6.38;3.13;;;;;;;;;;5048402;28;20029;-50
2022/03/31 12:56:54;;;;;;;5.28;2.60;;;;;;;;;;5051968;28;20116;-49
2022/03/31 12:59:20;;;;;;;6.43;2.80;;;;;;;;;;5048875;28;20036;-48
2022/03/31 13:02:01;;;;;;;6.95;3.10;;;;;;;;;;5045162;28;20584;-54
2022/03/31 13:04:28;;;;;;;5.63;3.45;;;;;;;;;;5045140;28;20021;-49
2022/03/31 13:06:54;;;;;;;5.75;3.08;;;;;;;;;;5044452;28;20025;-53
2022/03/31 13:09:20;;;;;;;9.27;3.63;;;;;;;;;;5036274;28;20760;-51
2022/03/31 13:11:47;;;;;;;5.32;3.35;;;;;;;;;;5032247;28;20036;-49
2022/03/31 13:14:14;;;;;;;6.72;3.83;;;;;;;;;;5050902;28;20466;-52
2022/03/31 13:16:44;;;;;;;5.13;3.00;;;;;;;;;;5048794;28;20082;-48
2022/03/31 13:19:10;;;;;;;7.38;3.20;;;;;;;;;;5046427;28;20063;-53
2022/03/31 13:21:36;;;;;;;6.97;3.60;;;;;;;;;;5044359;28;20022;-50
2022/03/31 13:24:03;;;;;;;9.00;3.88;;;;;;;;;;5047129;28;20037;-50
2022/03/31 13:26:31;;;;;;;7.07;3.97;;;;;;;;;;5038394;28;20036;-48
2022/03/31 13:28:57;;;;;;;6.50;3.03;;;;;;;;;;5043087;28;20025;-49
2022/03/31 13:31:23;;;;;;;5.47;2.95;;;;;;;;;;5039483;28;20049;-48
2022/03/31 13:33:49;;;;;;;6.18;2.65;;;;;;;;;;5039492;28;20053;-50
2022/03/31 13:36:15;;;;;;;5.85;3.08;;;;;;;;;;5045360;28;20112;-48
2022/03/31 13:38:41;;;;;;;5.72;3.05;;;;;;;;;;5045202;28;20079;-53
2022/03/31 13:41:07;;;;;;;7.13;2.80;;;;;;;;;;5039822;28;20028;-51
2022/03/31 13:43:34;;;;;;;6.60;3.25;;;;;;;;;;5055046;28;20029;-53
2022/03/31 13:46:01;;;;;;;3.90;2.47;;;;;;;;;;5048638;28;20370;-48
2022/03/31 13:48:27;;;;;;;7.38;2.95;;;;;;;;;;5051824;28;20480;-50
2022/03/31 13:50:55;;;;;;;9.30;4.63;;;;;;;;;;5054569;28;20120;-51
2022/03/31 13:56:05;;;;;;;4.85;2.60;;;;;;;;;;5036808;28;20056;-48
2022/03/31 14:01:18;;;;;;;3.70;2.40;;;;;;;;;;5042377;28;20107;-48
2022/03/31 14:03:45;;;;;;;6.07;2.30;;;;;;;;;;5047835;28;20104;-48
2022/03/31 14:06:15;;;;;;;5.55;2.50;;;;;;;;;;5050891;28;20025;-48
2022/03/31 14:08:42;;;;;;;3.75;2.10;;;;;;;;;;5047642;28;20032;-49
2022/03/31 14:11:08;;;;;;;5.22;2.90;;;;;;;;;;5054596;28;20059;-48
2022/03/31 14:13:34;;;;;;;5.13;2.58;;;;;;;;;;5055204;28;20040;-49
2022/03/31 14:16:02;;;;;;;5.65;2.55;;;;;;;;;;5050980;28;20021;-48
2022/03/31 14:18:31;;;;;;;3.45;2.28;;;;;;;;;;5040347;28;20017;-49
2022/03/31 14:20:58;;;;;;;5.65;2.60;;;;;;;;;;5047293;28;20091;-48
2022/03/31 14:23:24;;;;;;;6.65;3.08;;;;;;;;;;5040711;28;20037;-50
2022/03/31 14:25:51;;;;;;;5.95;2.83;;;;;;;;;;5044190;28;20434;-49
2022/03/31 14:28:17;;;;;;;5.15;3.05;;;;;;;;;;5054174;28;20531;-49
2022/03/31 14:30:45;;;;;;;6.50;3.55;;;;;;;;;;5043315;28;20040;-49
2022/03/31 14:33:10;;;;;;;5.10;2.60;;;;;;;;;;5043873;28;20029;-53
2022/03/31 14:35:36;;;;;;;5.07;3.00;;;;;;;;;;5033543;28;20489;-50
2022/03/31 14:38:03;;;;;;;4.47;2.45;;;;;;;;;;5038747;28;20413;-51
2022/03/31 14:40:29;;;;;;;7.82;2.45;;;;;;;;;;5040370;28;20052;-49
2022/03/31 14:42:55;;;;;;;7.13;2.50;;;;;;;;;;5045841;28;20500;-49
2022/03/31 14:45:21;;;;;;;7.55;2.30;;;;;;;;;;5038664;28;20033;-49
2022/03/31 14:47:47;;;;;;;4.20;2.00;;;;;;;;;;5035153;28;20036;-49
2022/03/31 14:50:13;;;;;;;5.20;2.00;;;;;;;;;;5042933;28;20160;-49